createdAt,value
2023-03-29T00:01:42.114Z,101257.63
2023-03-29T00:04:46.166Z,101248.44
2023-03-29T00:07:54.380Z,101241.62
2023-03-29T00:10:59.372Z,101253.75
2023-03-29T00:14:02.235Z,101246.47
2023-03-29T00:17:05.421Z,101252.88
2023-03-29T00:20:10.386Z,101254.81
2023-03-29T00:23:13.466Z,101264.97
2023-03-29T00:26:16.485Z,101261.97
2023-03-29T00:29:19.466Z,101259.97
2023-03-29T00:32:22.542Z,101273.41
2023-03-29T00:35:25.752Z,101274.88
2023-03-29T00:38:28.921Z,101269.59
2023-03-29T00:41:31.861Z,101271.53
2023-03-29T00:44:58.109Z,101270.53
2023-03-29T00:48:04.879Z,101269.34
2023-03-29T00:51:10.275Z,101271.28
2023-03-29T00:54:18.806Z,101276.34
2023-03-29T00:57:26.472Z,101277.41
2023-03-29T01:00:35.201Z,101266.59
2023-03-29T01:03:48.803Z,101259.94
2023-03-29T01:07:02.909Z,101256.94
2023-03-29T01:10:12.799Z,101248.31
2023-03-29T01:13:21.945Z,101245.19
2023-03-29T01:16:28.723Z,101238.66
2023-03-29T01:19:42.338Z,101241.19
2023-03-29T01:23:16.989Z,101231.94
2023-03-29T01:26:31.895Z,101233.25
2023-03-29T01:29:39.307Z,101234.44
2023-03-29T01:32:59.304Z,101230.19
2023-03-29T01:36:21.233Z,101229.03
2023-03-29T01:39:24.614Z,101218.16
2023-03-29T01:42:54.101Z,101217.03
2023-03-29T01:46:03.241Z,101226.72
2023-03-29T01:49:14.459Z,101218.91
2023-03-29T01:52:24.225Z,101214.06
2023-03-29T01:55:34.930Z,101218.09
2023-03-29T01:58:46.431Z,101217.06
2023-03-29T02:01:54.874Z,101227.13
2023-03-29T02:04:59.440Z,101222.12
2023-03-29T02:08:03.693Z,101230.88
2023-03-29T02:11:08.917Z,101236.44
2023-03-29T02:14:12.014Z,101226.41
2023-03-29T02:17:25.974Z,101250.78
2023-03-29T02:20:47.378Z,101245.16
2023-03-29T02:23:54.783Z,101248.06
2023-03-29T02:26:59.228Z,101237.19
2023-03-29T02:30:02.148Z,101241.97
2023-03-29T02:33:21.984Z,101248.69
2023-03-29T02:36:38.308Z,101252.00
2023-03-29T02:39:42.281Z,101254.63
2023-03-29T02:42:46.012Z,101257.97
2023-03-29T02:45:50.463Z,101262.38
2023-03-29T02:48:54.993Z,101255.75
2023-03-29T02:52:02.847Z,101274.13
2023-03-29T02:55:09.871Z,101281.16
2023-03-29T02:58:15.569Z,101281.81
2023-03-29T03:01:20.449Z,101294.72
2023-03-29T03:04:26.059Z,101289.62
2023-03-29T03:07:29.055Z,101291.13
2023-03-29T03:10:33.868Z,101295.97
2023-03-29T03:13:36.747Z,101300.03
2023-03-29T03:16:39.625Z,101290.09
2023-03-29T03:19:42.681Z,101296.53
2023-03-29T03:22:49.434Z,101302.25
2023-03-29T03:25:52.845Z,101312.22
2023-03-29T03:28:56.590Z,101308.41
2023-03-29T03:32:04.319Z,101316.19
2023-03-29T03:35:11.869Z,101322.66
2023-03-29T03:38:16.703Z,101332.94
2023-03-29T03:41:20.100Z,101332.66
2023-03-29T03:44:22.827Z,101337.53
2023-03-29T03:47:28.311Z,101342.09
2023-03-29T03:50:31.481Z,101345.31
2023-03-29T03:53:35.139Z,101343.69
2023-03-29T03:56:39.635Z,101350.97
2023-03-29T03:59:42.925Z,101346.41
2023-03-29T04:02:47.394Z,101356.13
2023-03-29T04:05:50.637Z,101364.19
2023-03-29T04:08:54.315Z,101367.12
2023-03-29T04:12:01.587Z,101362.56
2023-03-29T04:15:06.450Z,101368.78
2023-03-29T04:18:09.698Z,101371.44
2023-03-29T04:21:13.768Z,101367.16
2023-03-29T04:24:17.290Z,101370.62
2023-03-29T04:27:20.753Z,101367.44
2023-03-29T04:30:23.944Z,101369.31
2023-03-29T04:33:29.523Z,101377.09
2023-03-29T04:36:34.270Z,101379.75
2023-03-29T04:39:38.008Z,101369.81
2023-03-29T04:42:45.940Z,101383.75
2023-03-29T04:45:48.986Z,101382.94
2023-03-29T04:48:54.056Z,101375.59
2023-03-29T04:51:58.409Z,101381.50
2023-03-29T04:55:03.257Z,101382.41
2023-03-29T04:58:07.409Z,101379.03
2023-03-29T05:01:10.988Z,101359.09
2023-03-29T05:04:14.510Z,101371.69
2023-03-29T05:07:19.252Z,101378.34
2023-03-29T05:10:22.611Z,101375.50
2023-03-29T05:13:25.749Z,101381.06
2023-03-29T05:16:30.275Z,101369.84
2023-03-29T05:19:33.734Z,101371.94
2023-03-29T05:22:38.497Z,101384.84
2023-03-29T05:25:43.920Z,101394.78
2023-03-29T05:28:46.557Z,101376.00
2023-03-29T05:31:49.709Z,101388.72
2023-03-29T05:34:53.373Z,101382.81
2023-03-29T05:37:56.930Z,101380.97
2023-03-29T05:41:01.368Z,101377.72
2023-03-29T05:44:07.331Z,101381.53
2023-03-29T05:47:10.773Z,101382.06
2023-03-29T05:50:13.764Z,101390.00
2023-03-29T05:53:17.517Z,101387.72
2023-03-29T05:56:20.683Z,101385.03
2023-03-29T05:59:24.568Z,101391.66
2023-03-29T06:02:29.111Z,101391.94
2023-03-29T06:05:33.055Z,101389.03
2023-03-29T06:08:36.313Z,101393.59
2023-03-29T06:11:40.939Z,101394.34
2023-03-29T06:14:48.228Z,101390.81
2023-03-29T06:17:51.752Z,101400.84
2023-03-29T06:20:54.557Z,101400.19
2023-03-29T06:23:58.745Z,101405.78
2023-03-29T06:27:03.180Z,101404.00
2023-03-29T06:30:07.176Z,101402.63
2023-03-29T06:33:10.621Z,101403.88
2023-03-29T06:36:16.365Z,101400.00
2023-03-29T06:39:19.796Z,101407.34
2023-03-29T06:42:24.191Z,101400.59
2023-03-29T06:48:39.416Z,101401.62
2023-03-29T06:51:42.686Z,101402.41
2023-03-29T06:54:46.676Z,101395.59
2023-03-29T06:57:49.552Z,101399.13
2023-03-29T07:00:54.061Z,101399.78
2023-03-29T07:03:58.681Z,101408.94
2023-03-29T07:07:03.515Z,101408.91
2023-03-29T07:10:07.446Z,101413.97
2023-03-29T07:13:15.754Z,101410.56
2023-03-29T07:16:19.535Z,101400.75
2023-03-29T07:19:25.309Z,101422.81
2023-03-29T07:22:31.655Z,101421.41
2023-03-29T07:25:35.405Z,101430.81
2023-03-29T07:28:39.595Z,101434.63
2023-03-29T07:31:43.853Z,101439.47
2023-03-29T07:34:50.232Z,101437.63
2023-03-29T07:37:55.686Z,101450.63
2023-03-29T07:41:00.044Z,101445.69
2023-03-29T07:44:09.394Z,101454.91
2023-03-29T07:47:12.726Z,101444.56
2023-03-29T07:50:17.486Z,101443.13
2023-03-29T07:53:21.167Z,101447.59
2023-03-29T07:56:25.452Z,101446.75
2023-03-29T07:59:28.308Z,101452.78
2023-03-29T08:02:32.051Z,101457.78
2023-03-29T08:05:41.185Z,101458.28
2023-03-29T08:08:45.406Z,101461.75
2023-03-29T08:11:48.998Z,101459.25
2023-03-29T08:14:51.900Z,101453.28
2023-03-29T08:17:55.108Z,101449.34
2023-03-29T08:20:58.202Z,101433.44
2023-03-29T08:24:01.239Z,101442.63
2023-03-29T08:27:04.265Z,101438.31
2023-03-29T08:30:09.555Z,101430.94
2023-03-29T08:33:13.160Z,101429.94
2023-03-29T08:36:16.748Z,101426.34
2023-03-29T08:39:19.842Z,101421.69
2023-03-29T08:42:33.050Z,101418.97
2023-03-29T08:46:01.693Z,101425.00
2023-03-29T08:49:09.533Z,101417.09
2023-03-29T08:52:24.038Z,101423.19
2023-03-29T08:55:35.467Z,101411.44
2023-03-29T08:58:45.773Z,101415.88
2023-03-29T09:01:53.270Z,101418.94
2023-03-29T09:05:06.755Z,101425.72
2023-03-29T09:08:18.937Z,101415.19
2023-03-29T09:11:24.768Z,101413.41
2023-03-29T09:15:06.856Z,101408.31
2023-03-29T09:18:22.360Z,101409.06
2023-03-29T09:21:37.778Z,101401.75
2023-03-29T09:25:05.999Z,101406.00
2023-03-29T09:28:27.198Z,101393.69
2023-03-29T09:31:37.348Z,101398.12
2023-03-29T09:34:48.075Z,101382.94
2023-03-29T09:37:53.295Z,101393.16
2023-03-29T09:41:03.136Z,101391.50
2023-03-29T09:44:17.709Z,101369.06
2023-03-29T09:47:40.866Z,101379.34
2023-03-29T09:50:47.548Z,101372.16
2023-03-29T09:53:50.724Z,101364.56
2023-03-29T09:56:56.657Z,101365.72
2023-03-29T10:00:05.808Z,101360.62
2023-03-29T10:03:25.109Z,101351.81
2023-03-29T10:06:29.547Z,101355.22
2023-03-29T10:09:34.324Z,101362.75
2023-03-29T10:12:41.707Z,101348.81
2023-03-29T10:15:44.448Z,101348.34
2023-03-29T10:18:47.540Z,101333.19
2023-03-29T10:21:52.888Z,101334.47
2023-03-29T10:24:58.074Z,101332.81
2023-03-29T10:28:11.852Z,101325.37
2023-03-29T10:31:24.911Z,101327.78
2023-03-29T10:34:28.242Z,101320.25
2023-03-29T10:37:31.695Z,101308.16
2023-03-29T10:40:40.423Z,101312.56
2023-03-29T10:43:46.897Z,101316.66
2023-03-29T10:46:49.660Z,101306.12
2023-03-29T10:49:58.936Z,101314.47
2023-03-29T10:53:03.438Z,101304.19
2023-03-29T10:56:33.553Z,101300.53
2023-03-29T10:59:57.727Z,101291.47
2023-03-29T11:03:21.416Z,101291.84
2023-03-29T11:06:32.625Z,101294.19
2023-03-29T11:10:00.504Z,101281.97
2023-03-29T11:13:41.843Z,101272.50
2023-03-29T11:17:03.115Z,101278.72
2023-03-29T11:20:19.718Z,101263.28
2023-03-29T11:23:37.967Z,101264.69
2023-03-29T11:27:03.614Z,101282.06
2023-03-29T11:30:42.181Z,101266.94
2023-03-29T11:33:44.832Z,101253.03
2023-03-29T11:36:58.402Z,101249.41
2023-03-29T11:40:05.812Z,101245.88
2023-03-29T11:43:15.591Z,101240.34
2023-03-29T11:46:27.335Z,101236.19
2023-03-29T11:49:43.162Z,101232.53
2023-03-29T11:53:05.195Z,101237.56
2023-03-29T11:56:15.715Z,101229.22
2023-03-29T11:59:41.947Z,101211.03
2023-03-29T12:02:53.726Z,101227.63
2023-03-29T12:06:07.916Z,101229.34
2023-03-29T12:09:34.239Z,101223.03
2023-03-29T12:12:45.679Z,101219.97
2023-03-29T12:15:57.036Z,101230.19
2023-03-29T12:19:09.266Z,101213.59
2023-03-29T12:22:11.885Z,101222.12
2023-03-29T12:25:21.899Z,101215.09
2023-03-29T12:28:58.684Z,101212.72
2023-03-29T12:32:35.171Z,101211.03
2023-03-29T12:36:16.526Z,101213.53
2023-03-29T12:39:24.307Z,101207.84
2023-03-29T12:42:29.400Z,101202.34
2023-03-29T12:45:48.557Z,101199.81
2023-03-29T12:48:57.468Z,101187.88
2023-03-29T12:52:03.414Z,101184.56
2023-03-29T12:55:42.413Z,101192.53
2023-03-29T12:59:07.737Z,101187.75
2023-03-29T13:02:14.003Z,101190.69
2023-03-29T13:05:35.240Z,101180.25
2023-03-29T13:08:43.215Z,101174.84
2023-03-29T13:11:53.589Z,101174.06
2023-03-29T13:15:14.536Z,101173.38
2023-03-29T13:18:20.470Z,101172.16
2023-03-29T13:21:23.137Z,101165.69
2023-03-29T13:24:47.999Z,101165.53
2023-03-29T13:28:14.114Z,101166.72
2023-03-29T13:31:47.619Z,101167.12
2023-03-29T13:35:04.366Z,101160.41
2023-03-29T13:38:26.345Z,101152.25
2023-03-29T13:41:38.187Z,101149.97
2023-03-29T13:44:49.032Z,101153.41
2023-03-29T13:48:06.502Z,101152.28
2023-03-29T13:51:18.717Z,101149.16
2023-03-29T13:54:40.732Z,101150.53
2023-03-29T13:57:56.895Z,101142.37
2023-03-29T14:01:07.589Z,101139.53
2023-03-29T14:04:18.159Z,101140.69
2023-03-29T14:07:26.265Z,101130.31
2023-03-29T14:10:39.408Z,101131.97
2023-03-29T14:13:43.361Z,101127.31
2023-03-29T14:16:46.568Z,101119.50
2023-03-29T14:19:49.544Z,101127.66
2023-03-29T14:22:53.621Z,101120.72
2023-03-29T14:26:13.387Z,101108.56
2023-03-29T14:29:18.229Z,101116.66
2023-03-29T14:32:29.862Z,101120.12
2023-03-29T14:35:33.648Z,101108.59
2023-03-29T14:38:37.731Z,101098.44
2023-03-29T14:41:47.265Z,101091.34
2023-03-29T14:44:51.138Z,101103.47
2023-03-29T14:47:54.305Z,101092.44
2023-03-29T14:50:57.277Z,101091.47
2023-03-29T14:54:03.882Z,101095.38
2023-03-29T14:57:07.401Z,101087.09
2023-03-29T15:00:19.458Z,101092.09
2023-03-29T15:03:29.327Z,101092.00
2023-03-29T15:06:37.225Z,101086.94
2023-03-29T15:09:40.775Z,101086.12
2023-03-29T15:12:45.051Z,101074.13
2023-03-29T15:15:52.644Z,101086.34
2023-03-29T15:18:56.650Z,101079.09
2023-03-29T15:22:06.121Z,101085.00
2023-03-29T15:25:16.841Z,101074.31
2023-03-29T15:28:32.846Z,101076.66
2023-03-29T15:31:38.591Z,101088.69
2023-03-29T15:34:41.261Z,101078.16
2023-03-29T15:37:44.250Z,101075.56
2023-03-29T15:40:48.044Z,101074.47
2023-03-29T15:43:51.523Z,101075.78
2023-03-29T15:47:00.009Z,101069.69
2023-03-29T15:50:03.169Z,101067.19
2023-03-29T15:53:14.463Z,101065.56
2023-03-29T15:56:20.498Z,101079.03
2023-03-29T15:59:23.284Z,101065.59
2023-03-29T16:02:26.761Z,101077.34
2023-03-29T16:05:29.978Z,101083.97
2023-03-29T16:08:32.825Z,101084.94
2023-03-29T16:11:36.092Z,101079.47
2023-03-29T16:14:39.246Z,101075.06
2023-03-29T16:17:42.227Z,101078.50
2023-03-29T16:20:44.978Z,101091.03
2023-03-29T16:23:48.192Z,101093.38
2023-03-29T16:26:54.016Z,101086.44
2023-03-29T16:29:59.079Z,101072.00
2023-03-29T16:33:06.433Z,101074.22
2023-03-29T16:36:10.709Z,101076.72
2023-03-29T16:39:13.817Z,101081.28
2023-03-29T16:42:16.814Z,101070.38
2023-03-29T16:45:19.840Z,101077.06
2023-03-29T16:48:23.848Z,101075.09
2023-03-29T16:51:26.510Z,101072.13
2023-03-29T16:54:29.745Z,101083.44
2023-03-29T16:57:32.711Z,101066.94
2023-03-29T17:00:35.689Z,101071.41
2023-03-29T17:03:39.186Z,101062.12
2023-03-29T17:06:42.167Z,101061.22
2023-03-29T17:09:46.398Z,101062.72
2023-03-29T17:12:49.878Z,101061.25
2023-03-29T17:15:54.937Z,101058.31
2023-03-29T17:19:00.545Z,101057.84
2023-03-29T17:22:03.608Z,101055.59
2023-03-29T17:25:07.715Z,101055.16
2023-03-29T17:28:11.542Z,101055.59
2023-03-29T17:31:14.647Z,101062.44
2023-03-29T17:34:19.316Z,101063.13
2023-03-29T17:37:22.868Z,101067.47
2023-03-29T17:40:27.142Z,101045.66
2023-03-29T17:43:30.870Z,101065.91
2023-03-29T17:46:34.343Z,101071.50
2023-03-29T17:49:37.601Z,101073.19
2023-03-29T17:52:40.618Z,101076.84
2023-03-29T17:55:44.072Z,101070.59
2023-03-29T17:58:49.084Z,101062.28
2023-03-29T18:01:52.625Z,101062.25
2023-03-29T18:04:56.053Z,101062.50
2023-03-29T18:07:58.690Z,101081.37
2023-03-29T18:11:11.110Z,101078.66
2023-03-29T18:14:14.181Z,101041.75
2023-03-29T18:17:17.196Z,101082.16
2023-03-29T18:20:21.339Z,101092.06
2023-03-29T18:23:24.352Z,101101.09
2023-03-29T18:26:28.569Z,101105.19
2023-03-29T18:29:31.818Z,101107.44
2023-03-29T18:32:35.002Z,101089.31
2023-03-29T18:35:38.464Z,101099.97
2023-03-29T18:38:43.683Z,101099.50
2023-03-29T18:41:47.116Z,101117.12
2023-03-29T18:44:50.411Z,101105.22
2023-03-29T18:47:53.363Z,101091.47
2023-03-29T18:50:57.205Z,101081.81
2023-03-29T18:54:01.445Z,101111.50
2023-03-29T18:57:04.341Z,101087.78
2023-03-29T19:00:14.419Z,101110.91
2023-03-29T19:03:17.996Z,101079.50
2023-03-29T19:06:21.908Z,101116.31
2023-03-29T19:09:24.832Z,101116.03
2023-03-29T19:12:29.520Z,101095.50
2023-03-29T19:15:34.716Z,101116.09
2023-03-29T19:18:38.164Z,101093.94
2023-03-29T19:21:41.727Z,101089.16
2023-03-29T19:24:44.974Z,101077.00
2023-03-29T19:27:48.055Z,101094.69
2023-03-29T19:30:51.771Z,101108.00
2023-03-29T19:33:55.071Z,101100.81
2023-03-29T19:37:00.340Z,101097.06
2023-03-29T19:40:06.585Z,101098.03
2023-03-29T19:43:09.941Z,101089.69
2023-03-29T19:46:15.589Z,101087.44
2023-03-29T19:49:18.894Z,101092.44
2023-03-29T19:52:24.104Z,101092.69
2023-03-29T19:55:27.390Z,101085.38
2023-03-29T19:58:30.640Z,101098.91
2023-03-29T20:01:34.777Z,101093.06
2023-03-29T20:04:38.066Z,101087.69
2023-03-29T20:07:41.149Z,101081.31
2023-03-29T20:10:44.249Z,101091.19
2023-03-29T20:13:46.924Z,101087.16
2023-03-29T20:16:50.732Z,101083.47
2023-03-29T20:19:54.071Z,101084.41
2023-03-29T20:23:04.640Z,101085.88
2023-03-29T20:26:08.573Z,101078.41
2023-03-29T20:29:11.981Z,101075.09
2023-03-29T20:32:15.543Z,101074.37
2023-03-29T20:35:18.478Z,101075.25
2023-03-29T20:38:21.986Z,101080.28
2023-03-29T20:41:25.847Z,101075.47
2023-03-29T20:44:28.499Z,101076.94
2023-03-29T20:47:31.710Z,101060.31
2023-03-29T20:50:34.620Z,101063.94
2023-03-29T20:53:37.660Z,101060.84
2023-03-29T20:56:42.479Z,101064.69
2023-03-29T20:59:46.287Z,101067.06
2023-03-29T21:02:48.966Z,101057.97
2023-03-29T21:05:55.653Z,101057.41
2023-03-29T21:08:58.834Z,101063.94
2023-03-29T21:12:02.744Z,101055.44
2023-03-29T21:15:06.230Z,101060.44
2023-03-29T21:18:09.167Z,101046.44
2023-03-29T21:21:12.156Z,101063.41
2023-03-29T21:24:15.041Z,101061.16
2023-03-29T21:27:18.328Z,101056.78
2023-03-29T21:30:21.596Z,101063.28
2023-03-29T21:33:24.469Z,101067.78
2023-03-29T21:36:27.420Z,101078.50
2023-03-29T21:39:30.245Z,101067.25
2023-03-29T21:42:34.172Z,101069.53
2023-03-29T21:45:36.844Z,101064.41
2023-03-29T21:48:39.969Z,101069.06
2023-03-29T21:51:42.578Z,101065.94
2023-03-29T21:54:45.616Z,101061.00
2023-03-29T21:57:48.983Z,101053.03
2023-03-29T22:00:52.605Z,101057.56
2023-03-29T22:03:56.127Z,101069.06
2023-03-29T22:06:58.993Z,101036.34
2023-03-29T22:10:04.354Z,101059.38
2023-03-29T22:13:08.386Z,101057.09
2023-03-29T22:16:18.278Z,101043.47
2023-03-29T22:19:20.926Z,101047.22
2023-03-29T22:22:24.457Z,101017.66
2023-03-29T22:25:27.195Z,101013.53
2023-03-29T22:28:30.811Z,101049.97
2023-03-29T22:31:33.627Z,101050.03
2023-03-29T22:34:36.667Z,101019.19
2023-03-29T22:37:43.822Z,101053.78
2023-03-29T22:40:47.371Z,101055.56
2023-03-29T22:43:54.986Z,101054.06
2023-03-29T22:46:57.878Z,101058.91
2023-03-29T22:50:00.690Z,101021.53
2023-03-29T22:53:03.705Z,101055.50
2023-03-29T22:56:07.659Z,101053.91
2023-03-29T22:59:11.083Z,101029.50
2023-03-29T23:02:13.735Z,101040.09
2023-03-29T23:05:16.837Z,101050.66
2023-03-29T23:08:19.589Z,101056.09
2023-03-29T23:11:22.968Z,101050.37
2023-03-29T23:14:25.576Z,101049.56
2023-03-29T23:17:28.543Z,101052.50
2023-03-29T23:20:32.282Z,101053.72
2023-03-29T23:23:35.571Z,101063.16
2023-03-29T23:26:38.169Z,101051.31
2023-03-29T23:29:42.311Z,101059.28
2023-03-29T23:32:47.008Z,101056.25
2023-03-29T23:35:50.460Z,101049.31
2023-03-29T23:38:53.646Z,101061.44
2023-03-29T23:41:57.091Z,101055.56
2023-03-29T23:45:00.240Z,101053.56
2023-03-29T23:48:03.734Z,101043.75
2023-03-29T23:51:08.248Z,101038.47
2023-03-29T23:54:12.974Z,101044.41
2023-03-29T23:57:15.875Z,101034.28
